• Join FlightAware (Why Join?)
  • Login
  • US Flag 
06:15AM EDT


 

Airport Tracker/Info


-or-


 

Live Flight TrackerFlight Track Log ✈ DLH1684 ✈ 09-Jul-2012 ✈ EDDM / MUC - LHBP / BUD

Flight Track Log - Related Links

Times and Time Zones

All times are in EDT time to prevent confusion due to time zone crossing. See the DLH1684 flight status page for this flight to view local times or setup timezone preferences in your user account.

Time Position Orientation Groundspeed Altitude Reporting Facility
EDT Latitude Longitude Course Direction KTS MPH feet Rate Location/Type
03:23PM 48.3419 11.7679 263° West 168 193 1,800  Level FlightAware
03:23PM 48.3394 11.7393 257° West 168 193 2,800 2,520 Climbing FlightAware
03:23PM 48.3377 11.7278 241° Southwest 163 188 3,300 2,400 Climbing FlightAware
03:23PM 48.3359 11.7229 233° Southwest 168 193 3,400 1,800 Climbing FlightAware
03:24PM 48.3332 11.7175 53° Northeast 168 193 3,600 120 Climbing FlightAware
03:24PM 48.3340 11.7191 209° Southwest 171 197 3,500 360 Descending FlightAware
03:24PM 48.3208 11.7081 181° South 189 217 3,900 3,000 Climbing FlightAware
03:24PM 48.3039 11.7075 163° South 206 237 4,500 5,100 Climbing FlightAware
03:25PM 48.2744 11.7207 146° Southeast 236 272 5,600 3,060 Climbing FlightAware
03:25PM 48.2545 11.7409 144° Southeast 262 302 6,300 1,800 Climbing FlightAware
03:25PM 48.2336 11.7635 143° Southeast 283 326 6,800 1,560 Climbing FlightAware
03:26PM 48.2070 11.7932 132° Southeast 283 326 7,500 1,440 Climbing FlightAware
03:26PM 48.1892 11.8233 115° Southeast 297 342 7,900 1,200 Climbing FlightAware
03:26PM 48.1862 11.8331 109° East 297 342 8,000 1,200 Climbing FlightAware
03:26PM 48.1839 11.8434 99° East 299 344 8,100 600 Climbing FlightAware
03:26PM 48.1828 11.8537 88° East 300 345 8,100 780 Level FlightAware
03:27PM 48.1843 11.9062 81° East 311 358 8,500 780 Climbing FlightAware
03:27PM 48.1889 11.9493 81° East 329 379 8,700 600 Climbing FlightAware
03:27PM 48.1937 11.9966 94° East 346 398 8,900 240 Climbing FlightAware
03:28PM 48.1916 12.0472 99° East 351 404 9,000 1,620 Climbing FlightAware
03:29PM 48.1782 12.1726 86° East 362 417 11,700 3,120 Climbing FlightAware
03:30PM 48.1849 12.3217 86° East 397 457 14,000 3,720 Climbing FlightAware
03:30PM 48.1919 12.4625 86° East 400 460 16,700 3,300 Climbing FlightAware
03:31PM 48.1956 12.5455 86° East 411 473 17,900 2,460 Climbing FlightAware
03:32PM 48.2012 12.6676 86° East 424 488 19,600 2,220 Climbing FlightAware
03:32PM 48.2050 12.7548 86° East 437 503 20,500 2,100 Climbing FlightAware
03:33PM 48.2091 12.8562 89° East 442 509 21,900 2,280 Climbing FlightAware
03:33PM 48.2106 12.9702 89° East 448 516 23,200 2,100 Climbing FlightAware
03:34PM 48.2119 13.0805 89° East 454 522 24,400 1,800 Climbing FlightAware
03:34PM 48.2135 13.2083 89° East 466 536 25,500 1,560 Climbing FlightAware
03:35PM 48.2142 13.3061 89° East 474 545 26,200 1,500 Climbing FlightAware
03:36PM 48.2153 13.4108 89° East 477 549 27,200 1,680 Climbing FlightAware
03:36PM 48.2161 13.5292 89° East 483 556 28,200 1,620 Climbing FlightAware
03:37PM 48.2167 13.6189 89° East 487 560 28,800 1,380 Climbing FlightAware
03:37PM 48.2174 13.7272 90° East 488 562 29,700 1,680 Climbing FlightAware
03:38PM 48.2180 13.8479 90° East 485 558 30,900 2,040 Climbing FlightAware
03:38PM 48.2186 13.9828 90° East 477 549 32,100 1,560 Climbing FlightAware
03:39PM 48.2189 14.0869 90° East 482 555 32,600 720 Climbing FlightAware
03:40PM 48.2192 14.2386 90° East 486 559 33,000 300 Climbing FlightAware
03:40PM 48.2194 14.3512 90° East 482 555 33,000  Level FlightAware
03:41PM 48.2192 14.5093 271° West 488 562 33,000  Level FlightAware
03:42PM 48.2193 14.4934 90° East 487 560 33,000  Level FlightAware
03:42PM 48.2188 14.7306 90° East 489 563 33,000  Level FlightAware
03:43PM 48.2185 14.8438 90° East 489 563 33,000  Level FlightAware
03:43PM 48.2180 14.9467 90° East 489 563 33,000  Level FlightAware
03:44PM 48.2173 15.0860 91° East 489 563 33,000  Level FlightAware
03:44PM 48.2166 15.1863 90° East 486 559 33,000  Level FlightAware
03:45PM 48.2157 15.3320 91° East 484 557 33,000  Level FlightAware
03:46PM 48.2148 15.4317 91° East 482 555 33,000  Level FlightAware
03:46PM 48.2136 15.5685 91° East 481 554 33,000  Level FlightAware
03:47PM 48.2126 15.6704 91° East 480 552 33,000  Level FlightAware
03:47PM 48.2107 15.8026 91° East 480 552 33,000  Level FlightAware
03:48PM 48.2098 15.8700 91° East 481 554 33,000  Level FlightAware
03:48PM 48.2084 16.0019 91° East 481 554 33,000  Level FlightAware
03:49PM 48.2064 16.1386 91° East 483 556 33,000  Level FlightAware
03:50PM 48.2048 16.2336 91° East 484 557 33,000 -360 Level FlightAware
03:50PM 48.2027 16.3687 92° East 479 551 32,600 -840 Descending FlightAware
03:51PM 48.2008 16.4721 92° East 476 548 32,100 -960 Descending FlightAware
03:51PM 48.1984 16.5996 92° East 479 551 31,500 -960 Descending FlightAware
03:52PM 48.1964 16.7099 92° East 469 540 30,900 -1,080 Descending FlightAware
03:53PM 48.1937 16.8287 94° East 461 531 30,300 -960 Descending FlightAware
03:53PM 48.1888 16.9321 101° East 453 521 29,800 -960 Descending FlightAware
03:54PM 48.1767 17.0274 107° East 448 516 29,200 -1,500 Descending FlightAware
03:54PM 48.1512 17.1529 108° East 440 506 28,000 -1,560 Descending FlightAware
03:55PM 48.1326 17.2395 108° East 438 504 27,300 -1,500 Descending FlightAware
03:55PM 48.1119 17.3361 108° East 438 504 26,400 -1,680 Descending FlightAware
03:56PM 48.0872 17.4495 108° East 426 490 25,400 -1,500 Descending FlightAware
03:57PM 48.0692 17.5303 108° East 409 471 24,700 -1,500 Descending FlightAware
03:57PM 48.0486 17.6249 108° East 396 456 23,800 -1,440 Descending FlightAware
03:58PM 48.0309 17.7052 109° East 395 455 23,100 -1,500 Descending FlightAware
03:58PM 48.0065 17.8124 119° Southeast 395 455 22,000 -1,380 Descending FlightAware
03:59PM 47.9888 17.8596 126° Southeast 392 451 21,500 -1,320 Descending FlightAware
03:59PM 47.9533 17.9335 126° Southeast 384 442 20,700 -1,500 Descending FlightAware
04:00PM 47.9166 18.0098 126° Southeast 368 423 19,800 -1,620 Descending FlightAware
04:01PM 47.8751 18.0951 126° Southeast 364 419 18,800 -1,800 Descending FlightAware
04:01PM 47.8318 18.1835 126° Southeast 364 419 17,700 -1,560 Descending FlightAware
04:02PM 47.8053 18.2381 126° Southeast 360 414 17,000 -1,500 Descending FlightAware
04:02PM 47.7685 18.3133 126° Southeast 359 413 16,000 -1,560 Descending FlightAware
04:03PM 47.7376 18.3763 126° Southeast 356 410 15,200 -1,620 Descending FlightAware
04:03PM 47.7054 18.4416 126° Southeast 347 399 14,400 -1,440 Descending FlightAware
04:04PM 47.6710 18.5118 126° Southeast 351 404 13,500 -1,440 Descending FlightAware
04:05PM 47.6348 18.5849 126° Southeast 336 387 12,600 -1,500 Descending FlightAware
04:05PM 47.6016 18.6519 126° Southeast 334 384 11,800 -1,020 Descending FlightAware
04:06PM 47.5876 18.6801 126° Southeast 335 386 11,500 -1,020 Descending FlightAware
04:06PM 47.5414 18.7728 127° Southeast 330 380 10,600 -1,080 Descending FlightAware
04:07PM 47.5208 18.8139 126° Southeast 328 377 10,200 -1,140 Descending FlightAware
04:07PM 47.4906 18.8746 127° Southeast 326 375 9,600 -1,620 Descending FlightAware
04:08PM 47.4690 18.9176 126° Southeast 325 374 9,200 -840 Descending FlightAware
04:08PM 47.4558 18.9442 127° Southeast 321 369 9,000 -1,020 Descending FlightAware
04:08PM 47.4342 18.9869 127° Southeast 315 362 8,500 -1,260 Descending FlightAware
04:09PM 47.4201 19.0150 127° Southeast 305 351 8,200 -1,380 Descending FlightAware
04:09PM 47.4005 19.0538 306° West 296 341 7,700 -720 Descending FlightAware
04:10PM 47.4009 19.0530 127° Southeast 295 339 7,700 -1,320 Level FlightAware
04:10PM 47.3611 19.1317 126° Southeast 274 315 6,600 -1,260 Descending FlightAware
04:10PM 47.3600 19.1339 127° Southeast 278 320 6,600 -1,080 Level FlightAware
04:11PM 47.3258 19.2014 128° Southeast 263 303 5,700 -1,740 Descending FlightAware
04:11PM 47.3021 19.2464 129° Southeast 242 278 5,200 -960 Descending FlightAware
04:12PM 47.2918 19.2651 129° Southeast 243 280 4,900 -900 Descending FlightAware
04:12PM 47.2764 19.2933 127° Southeast 236 272 4,600 -480 Descending FlightAware
04:12PM 47.2761 19.2939 129° Southeast 237 273 4,600 -540 Level FlightAware
04:13PM 47.2592 19.3243 128° Southeast 228 262 4,200 -1,380 Descending FlightAware
04:13PM 47.2361 19.3674 113° Southeast 215 247 3,700 -1,800 Descending FlightAware
04:13PM 47.2346 19.3725 99° East 212 244 3,600 -600 Descending FlightAware
04:13PM 47.2336 19.3813 79° East 208 239 3,600 -900 Level FlightAware
04:13PM 47.2357 19.3966 54° Northeast 205 236 3,400 -900 Descending FlightAware
04:13PM 47.2405 19.4063 44° Northeast 205 236 3,300 -540 Descending FlightAware
04:14PM 47.2559 19.4284 45° Northeast 207 238 3,100 -540 Descending FlightAware
04:14PM 47.2687 19.4470 35° Northeast 207 238 2,900 -540 Descending FlightAware
04:14PM 47.2847 19.4637 212° Southwest 198 228 2,800  Descending FlightAware
04:15PM 47.2716 19.4514 North 207 238 2,900 -420 Climbing FlightAware
04:15PM 47.3124 19.4564 332° Northwest 201 231 2,600 -660 Descending FlightAware
04:15PM 47.3298 19.4427 314° West 207 238 2,500  Descending FlightAware
04:16PM 47.3416 19.4247 313° West 188 216 2,600 -180 Climbing FlightAware
04:16PM 47.3518 19.4084 313° West 183 211 2,400 -660 Descending FlightAware
04:16PM 47.3651 19.3873 311° West 171 197 2,100 -900 Descending FlightAware
04:17PM 47.3747 19.3711 313° West 160 184 1,800 -420 Descending FlightAware
04:17PM 47.3775 19.3667 313° West 141 162 1,800 -840 Level FlightAware
04:17PM 47.3976 19.3347 312° West 134 154 1,200 -1,320 Descending FlightAware
04:18PM 47.4029 19.3259 313° West 139 160 1,000 -540 Descending FlightAware
04:18PM 47.4126 19.3105 316° Northwest 137 158 800 -300 Descending FlightAware
04:18PM 47.4135 19.3092 312° West 136 157 800 -480 Level FlightAware
04:19PM 47.4300 19.2825 313° West 130 150 400 -300 Descending FlightAware
04:19PM 47.4331 19.2775 310° West 130 150 500 120 Climbing FlightAware
04:20PM 47.4369 19.2708 284° West 130 150 500  Level FlightAware
04:20PM 47.4376 19.2667 290° West 130 150 500  Level FlightAware
04:21PM 47.4380 19.2651 209° Southwest 130 150 500  Level FlightAware
04:21PM 47.4363 19.2637 114° Southeast 130 150 500  Level FlightAware
04:22PM 47.4360 19.2647 184° South 130 150 500  Level FlightAware
04:22PM 47.4350 19.2646 184° South 130 150 500  Level FlightAware